Time;durP1;ratioP1;P1;durP2;ratioP2;P2;SDS_P1;SDS_P2;PMS_P1;PMS_P2;Temp;Humidity;BMP_temperature;BMP_pressure;BME280_temperature;BME280_humidity;BME280_pressure;Samples;Min_cycle;Max_cycle;Signal;HPM_P1;HPM_P2
2020/12/29 00:03:08;;;;;;;11.13;7.93;;;;;;;4.00;63.85;94663.25;8303343;28;20200;-78
2020/12/29 00:07:10;;;;;;;8.57;7.47;;;;;;;3.81;64.22;94680.81;8303193;28;20208;-77
2020/12/29 00:11:11;;;;;;;7.77;6.97;;;;;;;3.96;64.67;94672.09;8304197;28;20834;-77
2020/12/29 00:15:14;;;;;;;6.77;5.87;;;;;;;4.12;64.46;94666.69;8303156;28;20692;-77
2020/12/29 00:19:19;;;;;;;6.90;6.20;;;;;;;4.03;65.37;94662.22;8300014;28;20209;-77
2020/12/29 00:23:21;;;;;;;5.90;5.37;;;;;;;4.06;65.67;94655.13;8300492;28;20204;-77
2020/12/29 00:27:23;;;;;;;6.70;6.00;;;;;;;4.02;65.81;94651.16;8303135;28;20684;-76
2020/12/29 00:31:25;;;;;;;8.73;7.60;;;;;;;3.74;66.89;94641.25;8304967;28;20233;-77
2020/12/29 00:35:27;;;;;;;11.03;8.17;;;;;;;3.76;66.52;94640.19;8304346;28;20201;-77
2020/12/29 00:39:29;;;;;;;9.47;8.47;;;;;;;3.42;67.20;94645.09;8304404;28;20205;-77
2020/12/29 00:43:31;;;;;;;8.33;7.53;;;;;;;3.79;66.76;94664.75;8303867;28;20205;-77
2020/12/29 00:47:33;;;;;;;9.43;7.90;;;;;;;3.72;66.70;94652.38;8304367;28;20205;-77
2020/12/29 00:51:35;;;;;;;9.27;8.17;;;;;;;3.77;66.54;94664.88;8303319;28;20229;-77
2020/12/29 00:55:37;;;;;;;11.23;9.83;;;;;;;3.53;66.87;94652.03;8303980;28;20217;-77
2020/12/29 00:59:39;;;;;;;11.67;9.87;;;;;;;3.56;66.68;94669.75;8304094;28;20212;-77
2020/12/29 01:03:41;;;;;;;9.70;8.70;;;;;;;3.46;67.32;94666.97;8304718;28;20205;-77
2020/12/29 01:07:43;;;;;;;8.40;7.50;;;;;;;3.42;67.86;94667.31;8307871;28;20649;-78
2020/12/29 01:11:45;;;;;;;8.13;7.33;;;;;;;3.29;68.63;94673.28;8310441;28;20240;-77
2020/12/29 01:15:47;;;;;;;7.57;6.83;;;;;;;3.38;68.11;94668.44;8309673;28;20233;-78
2020/12/29 01:19:50;;;;;;;6.70;5.50;;;;;;;3.37;68.28;94683.00;8309302;28;20220;-77
2020/12/29 01:23:51;;;;;;;7.10;6.40;;;;;;;3.44;68.53;94678.25;8310243;28;20201;-78
2020/12/29 01:27:53;;;;;;;8.30;7.23;;;;;;;3.49;68.23;94673.66;8309472;28;20205;-77
2020/12/29 01:31:55;;;;;;;7.23;6.53;;;;;;;3.46;68.47;94673.84;8309156;28;20220;-76
2020/12/29 01:35:57;;;;;;;7.70;6.33;;;;;;;3.52;68.13;94658.06;8309206;28;20213;-76
2020/12/29 01:39:59;;;;;;;8.53;6.87;;;;;;;3.72;67.61;94667.75;8307420;28;20552;-76
2020/12/29 01:44:12;;;;;;;8.13;7.33;;;;;;;3.55;67.65;94655.31;8307894;28;20205;-76
2020/12/29 01:48:14;;;;;;;8.33;7.10;;;;;;;3.42;68.10;94665.56;8310442;28;20658;-76
2020/12/29 01:52:16;;;;;;;7.53;6.73;;;;;;;3.58;67.41;94662.78;8308067;28;20228;-76
2020/12/29 01:56:18;;;;;;;7.77;6.83;;;;;;;3.58;67.28;94659.38;8282076;28;20213;-76
2020/12/29 02:00:20;;;;;;;6.93;5.90;;;;;;;3.74;66.68;94670.19;8273655;28;20555;-76
2020/12/29 02:04:22;;;;;;;6.80;6.07;;;;;;;3.56;67.02;94668.91;8273175;28;20206;-77
2020/12/29 02:08:25;;;;;;;7.00;6.30;;;;;;;3.50;66.85;94670.16;8271927;28;20249;-76
2020/12/29 02:12:27;;;;;;;6.30;5.70;;;;;;;3.39;66.83;94690.53;8272040;28;20579;-76
2020/12/29 02:16:29;;;;;;;5.43;4.93;;;;;;;3.38;67.09;94696.59;8272289;28;20206;-76
2020/12/29 02:20:31;;;;;;;5.13;4.70;;;;;;;3.40;67.29;94700.66;8272884;28;20604;-76
2020/12/29 02:24:34;;;;;;;5.10;4.40;;;;;;;3.52;67.67;94693.88;8273383;28;20202;-77
2020/12/29 02:28:36;;;;;;;4.60;4.20;;;;;;;3.69;67.81;94693.56;8269324;28;20237;-77
2020/12/29 02:32:38;;;;;;;4.63;4.20;;;;;;;3.70;68.18;94684.13;8270142;28;20233;-77
2020/12/29 02:36:40;;;;;;;4.97;4.50;;;;;;;3.71;68.16;94686.59;8269600;28;20205;-77
2020/12/29 02:40:42;;;;;;;4.37;3.80;;;;;;;3.85;67.93;94688.19;8294104;28;20291;-77
2020/12/29 02:44:44;;;;;;;5.00;4.30;;;;;;;3.79;68.04;94682.66;8302734;28;20256;-78
2020/12/29 02:48:46;;;;;;;5.73;4.53;;;;;;;3.72;68.72;94679.72;8302052;28;20233;-78
2020/12/29 02:52:48;;;;;;;4.27;3.70;;;;;;;3.89;68.17;94681.91;8302080;28;20205;-79
2020/12/29 02:56:51;;;;;;;3.90;3.60;;;;;;;3.76;68.57;94677.78;8302110;28;20201;-78
2020/12/29 03:00:53;;;;;;;4.37;3.60;;;;;;;3.85;67.96;94688.19;8301625;28;20209;-79
2020/12/29 03:04:55;;;;;;;3.30;3.00;;;;;;;3.98;67.83;94695.84;8301707;28;20208;-78
2020/12/29 03:08:57;;;;;;;4.17;3.50;;;;;;;3.85;67.82;94690.75;8303208;28;20244;-81
2020/12/29 03:12:59;;;;;;;3.50;3.20;;;;;;;4.10;66.92;94689.84;8313063;28;20241;-80
2020/12/29 03:17:01;;;;;;;4.57;3.10;;;;;;;4.06;67.00;94685.06;8312948;28;20205;-80
2020/12/29 03:21:03;;;;;;;3.10;2.80;;;;;;;4.15;67.08;94697.22;8312486;28;20217;-80
2020/12/29 03:25:04;;;;;;;3.10;2.40;;;;;;;4.28;66.39;94697.97;8312495;28;20205;-80
2020/12/29 03:29:12;;;;;;;2.20;2.00;;;;;;;4.26;66.04;94707.47;8311086;28;20684;-80
2020/12/29 03:33:14;;;;;;;2.40;2.20;;;;;;;4.34;65.55;94706.97;8313633;28;20201;-80
2020/12/29 03:37:16;;;;;;;4.37;2.10;;;;;;;4.25;66.08;94710.16;8314414;28;20220;-80
2020/12/29 03:41:18;;;;;;;2.17;2.00;;;;;;;4.35;65.67;94713.69;8312625;28;20204;-80
2020/12/29 03:45:20;;;;;;;3.80;2.00;;;;;;;4.43;65.85;94725.97;8314195;28;20209;-80
2020/12/29 03:49:22;;;;;;;2.87;2.10;;;;;;;4.38;66.40;94738.28;8313795;28;20232;-80
2020/12/29 03:53:24;;;;;;;2.17;1.93;;;;;;;4.32;67.07;94739.53;8315733;28;20205;-80
2020/12/29 03:57:25;;;;;;;2.37;2.17;;;;;;;4.32;67.31;94736.97;8317133;28;20220;-80
2020/12/29 04:01:28;;;;;;;3.27;2.20;;;;;;;4.50;66.85;94751.03;8320067;28;20212;-80
2020/12/29 04:05:30;;;;;;;2.50;2.30;;;;;;;4.48;67.47;94754.66;8322909;28;20612;-79
2020/12/29 04:09:35;;;;;;;2.27;1.80;;;;;;;4.55;67.45;94755.84;8334818;28;20232;-80
2020/12/29 04:13:37;;;;;;;2.57;1.90;;;;;;;4.57;67.34;94753.16;8335333;28;20243;-80
2020/12/29 04:17:41;;;;;;;3.10;2.17;;;;;;;4.55;67.43;94752.44;8335701;28;20207;-80
2020/12/29 04:21:43;;;;;;;2.77;2.33;;;;;;;4.62;67.33;94758.78;8306971;28;20219;-80
2020/12/29 04:25:44;;;;;;;3.20;1.93;;;;;;;4.57;67.25;94756.56;8305863;28;20204;-80
2020/12/29 04:29:46;;;;;;;2.80;1.70;;;;;;;4.67;66.74;94754.97;8307070;28;20695;-80
2020/12/29 04:33:49;;;;;;;3.73;2.30;;;;;;;4.54;67.17;94758.50;8305929;28;20551;-80
2020/12/29 04:37:50;;;;;;;3.30;2.30;;;;;;;4.64;66.58;94759.47;8306333;28;20312;-79
2020/12/29 04:41:53;;;;;;;2.27;1.80;;;;;;;4.46;67.00;94777.81;8311122;28;20212;-79
2020/12/29 04:45:59;;;;;;;2.20;2.00;;;;;;;4.46;67.09;94793.19;8313346;28;20201;-79
2020/12/29 04:50:03;;;;;;;2.60;2.00;;;;;;;4.48;67.05;94795.66;8311894;28;20592;-79
2020/12/29 04:54:06;;;;;;;1.87;1.70;;;;;;;4.63;66.33;94796.31;8310012;28;20200;-80
2020/12/29 04:58:08;;;;;;;2.53;1.77;;;;;;;4.68;65.79;94789.94;8312923;28;20208;-80
2020/12/29 05:02:11;;;;;;;3.60;2.00;;;;;;;4.68;66.00;94779.69;8313374;28;20270;-80
2020/12/29 05:06:14;;;;;;;1.90;1.70;;;;;;;4.68;65.77;94782.25;8313788;28;20205;-80
2020/12/29 05:10:16;;;;;;;2.37;1.67;;;;;;;4.82;65.58;94788.13;8313900;28;20221;-80
2020/12/29 05:14:18;;;;;;;2.73;2.10;;;;;;;4.84;65.05;94799.09;8313731;28;20244;-80
2020/12/29 05:18:20;;;;;;;4.07;1.70;;;;;;;4.79;65.25;94801.97;8313667;28;20202;-81
2020/12/29 05:22:22;;;;;;;3.53;1.93;;;;;;;4.72;65.11;94813.56;8312772;28;20216;-81
2020/12/29 05:26:35;;;;;;;2.90;1.80;;;;;;;4.76;64.68;94824.44;8312607;28;20216;-81
2020/12/29 05:30:38;;;;;;;1.70;1.60;;;;;;;4.79;64.27;94809.66;8313623;28;20240;-81
2020/12/29 05:34:40;;;;;;;3.80;1.70;;;;;;;4.65;64.37;94818.34;8314428;28;20558;-81
2020/12/29 05:38:42;;;;;;;2.07;1.63;;;;;;;4.88;63.61;94832.06;8314524;28;20660;-80
2020/12/29 05:42:48;;;;;;;1.93;1.70;;;;;;;4.56;64.23;94836.91;8315013;28;20212;-80
2020/12/29 05:46:50;;;;;;;2.30;1.50;;;;;;;4.81;63.84;94845.44;8315572;28;20220;-81
2020/12/29 05:50:52;;;;;;;1.97;1.47;;;;;;;4.77;64.20;94854.28;8316890;28;20271;-80
2020/12/29 05:54:55;;;;;;;1.90;1.67;;;;;;;4.84;63.81;94855.50;8316769;28;20202;-80
2020/12/29 05:58:57;;;;;;;2.37;1.60;;;;;;;4.84;64.06;94855.50;8317448;28;20205;-80
2020/12/29 06:03:00;;;;;;;1.90;1.50;;;;;;;4.84;63.95;94866.56;8317880;28;20205;-79
2020/12/29 06:07:04;;;;;;;4.83;1.40;;;;;;;4.83;64.16;94872.59;8318786;28;20567;-80
2020/12/29 06:11:12;;;;;;;1.90;1.40;;;;;;;4.74;64.06;94882.69;8319848;28;20232;-80
2020/12/29 06:15:25;;;;;;;2.50;1.50;;;;;;;4.77;64.15;94875.59;8320921;28;20233;-80
2020/12/29 06:19:28;;;;;;;2.77;1.50;;;;;;;4.63;64.73;94876.56;8322179;28;20189;-80
2020/12/29 06:23:31;;;;;;;1.87;1.20;;;;;;;4.82;64.35;94886.34;8322260;28;20205;-80
2020/12/29 06:27:40;;;;;;;2.77;1.30;;;;;;;5.01;63.90;94890.19;8317378;28;20201;-79
2020/12/29 06:31:43;;;;;;;1.23;1.10;;;;;;;4.95;64.07;94878.63;8306731;28;20232;-78
2020/12/29 06:35:45;;;;;;;1.23;1.13;;;;;;;4.73;64.88;94881.06;8303752;28;20656;-78
2020/12/29 06:39:49;;;;;;;2.07;1.07;;;;;;;4.71;65.09;94893.97;8303619;28;20221;-78
2020/12/29 06:43:51;;;;;;;1.43;1.03;;;;;;;4.64;65.24;94903.03;8306002;28;20235;-79
2020/12/29 06:47:53;;;;;;;3.30;1.40;;;;;;;4.88;64.97;94898.75;8306835;28;20201;-80
2020/12/29 06:52:13;;;;;;;2.27;1.43;;;;;;;4.86;64.92;94904.91;8311035;28;20225;-80
2020/12/29 06:56:15;;;;;;;2.87;1.50;;;;;;;4.83;64.88;94920.50;8312084;28;20201;-79
2020/12/29 07:00:19;;;;;;;1.67;1.17;;;;;;;4.86;65.42;94933.94;8311774;28;20205;-79
2020/12/29 07:04:21;;;;;;;2.47;1.40;;;;;;;4.82;65.60;94934.25;8311776;28;20205;-79
2020/12/29 07:08:35;;;;;;;2.33;1.20;;;;;;;5.01;64.93;94923.53;8310834;28;20231;-79
2020/12/29 07:12:42;;;;;;;1.83;1.20;;;;;;;4.83;65.37;94936.69;8310535;28;20237;-79
2020/12/29 07:16:52;;;;;;;2.57;1.20;;;;;;;4.82;65.38;94949.66;8311468;28;20215;-79
2020/12/29 07:20:54;;;;;;;3.40;1.57;;;;;;;4.81;65.57;94946.25;8311561;28;20193;-79
2020/12/29 07:24:56;;;;;;;2.37;1.40;;;;;;;4.92;65.22;94962.66;8311396;28;20212;-79
2020/12/29 07:29:00;;;;;;;2.23;1.07;;;;;;;4.80;65.57;94959.19;8311335;28;20229;-79
2020/12/29 07:33:04;;;;;;;2.90;1.23;;;;;;;5.03;64.79;94970.41;8311952;28;20212;-79
2020/12/29 07:37:08;;;;;;;1.90;1.20;;;;;;;5.07;64.66;94971.81;8311345;28;20205;-79
2020/12/29 07:41:10;;;;;;;1.57;0.90;;;;;;;5.16;64.40;94973.75;8311506;28;20254;-79
2020/12/29 07:45:12;;;;;;;3.73;2.60;;;;;;;5.10;64.59;94984.41;8313111;28;20204;-80
2020/12/29 07:49:14;;;;;;;5.33;3.00;;;;;;;5.10;65.08;95010.06;8313611;28;20576;-81
2020/12/29 07:53:16;;;;;;;1.30;0.90;;;;;;;4.84;66.23;95025.53;8313971;28;20205;-80
2020/12/29 07:57:18;;;;;;;1.53;0.97;;;;;;;5.07;66.08;95031.63;8315433;28;20678;-80
2020/12/29 08:01:21;;;;;;;2.03;1.10;;;;;;;5.15;66.45;95056.75;8316041;28;20569;-81
2020/12/29 08:05:24;;;;;;;1.30;1.00;;;;;;;5.03;67.45;95065.31;8313801;28;20205;-81
2020/12/29 08:09:26;;;;;;;1.40;1.00;;;;;;;4.95;67.55;95076.09;8314124;28;20236;-81
2020/12/29 08:13:28;;;;;;;1.27;0.83;;;;;;;4.83;68.15;95082.84;8314476;28;20243;-81
2020/12/29 08:17:30;;;;;;;4.00;1.13;;;;;;;4.76;68.29;95081.66;8323442;28;20670;-80
2020/12/29 08:21:34;;;;;;;1.50;0.80;;;;;;;4.87;67.75;95089.44;8326130;28;20220;-79
2020/12/29 08:25:36;;;;;;;1.83;1.00;;;;;;;4.67;67.93;95090.75;8324505;28;20201;-79
2020/12/29 08:29:38;;;;;;;0.80;0.80;;;;;;;4.67;68.27;95097.63;8324813;28;20228;-79
2020/12/29 08:33:42;;;;;;;1.07;0.70;;;;;;;4.52;68.74;95119.16;8324701;28;20205;-79
2020/12/29 08:37:55;;;;;;;1.07;0.80;;;;;;;4.63;68.28;95124.41;8324693;28;20556;-79
2020/12/29 08:42:02;;;;;;;1.93;1.10;;;;;;;4.88;67.58;95137.22;8324889;28;20258;-80
2020/12/29 08:46:05;;;;;;;0.90;0.70;;;;;;;4.90;67.27;95142.25;8328980;28;20205;-80
2020/12/29 08:50:27;;;;;;;0.70;0.70;;;;;;;4.90;67.31;95149.94;8324635;28;20216;-79
2020/12/29 08:54:35;;;;;;;1.20;0.80;;;;;;;4.94;67.08;95165.94;8321689;28;20207;-79
2020/12/29 08:58:37;;;;;;;2.23;1.90;;;;;;;4.89;67.30;95182.47;8320776;28;20616;-79
2020/12/29 09:02:38;;;;;;;0.50;0.50;;;;;;;4.94;67.28;95186.47;8322469;28;20221;-78
2020/12/29 09:06:40;;;;;;;0.70;0.50;;;;;;;5.01;67.58;95203.91;8326513;28;20229;-79
2020/12/29 09:10:43;;;;;;;2.00;1.50;;;;;;;4.90;67.64;95220.00;8326634;28;20240;-79
2020/12/29 09:14:54;;;;;;;0.40;0.40;;;;;;;4.77;67.61;95229.41;8326582;28;20244;-79
2020/12/29 09:18:56;;;;;;;7.30;4.93;;;;;;;4.90;68.05;95245.66;8323088;28;20205;-80
2020/12/29 09:23:03;;;;;;;1.37;0.93;;;;;;;5.06;67.78;95242.06;8324747;28;20201;-80
2020/12/29 09:27:06;;;;;;;2.33;2.07;;;;;;;5.12;67.38;95262.19;8320660;28;20701;-80
2020/12/29 09:31:08;;;;;;;0.50;0.50;;;;;;;5.06;67.22;95266.00;8319738;28;20224;-79
2020/12/29 09:35:26;;;;;;;1.23;0.90;;;;;;;5.21;67.14;95279.53;8318992;28;20236;-79
2020/12/29 09:39:27;;;;;;;0.63;0.63;;;;;;;5.13;67.35;95281.81;8320948;28;20652;-80
2020/12/29 09:43:30;;;;;;;3.43;0.97;;;;;;;5.14;67.59;95288.59;8319162;28;20229;-79
2020/12/29 09:47:32;;;;;;;8.60;3.43;;;;;;;5.20;67.58;95297.63;8314402;28;20190;-80
2020/12/29 09:51:33;;;;;;;0.70;0.70;;;;;;;5.21;66.91;95297.50;8315593;28;20301;-79
2020/12/29 09:55:35;;;;;;;0.80;0.80;;;;;;;5.26;67.05;95322.88;8309058;28;20200;-78
2020/12/29 09:59:38;;;;;;;1.03;1.00;;;;;;;5.10;67.43;95320.47;8299813;28;20205;-78
2020/12/29 10:03:39;;;;;;;0.70;0.70;;;;;;;5.08;66.46;95348.81;8304400;28;20193;-79
2020/12/29 10:07:41;;;;;;;0.83;0.67;;;;;;;5.27;66.71;95343.31;8306343;28;20202;-79
2020/12/29 10:11:43;;;;;;;0.60;0.60;;;;;;;5.38;65.87;95349.47;8308868;28;20731;-78
2020/12/29 10:15:46;;;;;;;0.83;0.80;;;;;;;5.37;66.15;95360.66;8306923;28;20225;-78
2020/12/29 10:19:47;;;;;;;0.90;0.90;;;;;;;5.38;66.04;95370.81;8309164;28;20209;-79
2020/12/29 10:23:49;;;;;;;0.40;0.40;;;;;;;5.35;65.34;95370.19;8316721;28;20201;-79
2020/12/29 10:27:51;;;;;;;1.10;1.00;;;;;;;5.51;65.45;95385.44;8318976;28;20273;-80
2020/12/29 10:31:53;;;;;;;0.70;0.70;;;;;;;5.60;65.49;95392.56;8320079;28;20220;-80
2020/12/29 10:35:55;;;;;;;1.23;0.90;;;;;;;5.52;65.28;95393.06;8315982;28;20204;-80
2020/12/29 10:39:57;;;;;;;0.70;0.70;;;;;;;5.70;65.07;95405.59;8318767;28;20220;-80
2020/12/29 10:43:59;;;;;;;0.80;0.67;;;;;;;5.66;64.97;95403.22;8318445;28;20201;-81
2020/12/29 10:48:01;;;;;;;0.83;0.73;;;;;;;5.68;64.66;95415.97;8320953;28;20209;-81
2020/12/29 10:52:03;;;;;;;1.37;0.63;;;;;;;5.79;64.27;95431.50;8321372;28;20248;-82
2020/12/29 10:56:09;;;;;;;0.60;0.60;;;;;;;5.96;64.22;95445.84;8322165;28;20201;-82
2020/12/29 11:00:11;;;;;;;1.57;1.40;;;;;;;5.76;63.88;95465.06;8320776;28;20193;-82
2020/12/29 11:04:14;;;;;;;0.60;0.60;;;;;;;5.56;63.98;95466.38;8322900;28;20201;-80
2020/12/29 11:08:15;;;;;;;0.90;0.90;;;;;;;5.77;63.98;95461.59;8325383;28;20201;-81
2020/12/29 11:12:17;;;;;;;1.07;0.97;;;;;;;5.77;64.02;95476.16;8319788;28;20237;-81
2020/12/29 11:16:20;;;;;;;1.33;1.23;;;;;;;5.69;64.11;95486.94;8320159;28;20205;-80
2020/12/29 11:20:22;;;;;;;1.87;0.93;;;;;;;5.74;64.01;95495.19;8320087;28;20209;-80
2020/12/29 11:24:24;;;;;;;1.23;1.00;;;;;;;5.61;64.14;95500.25;8319998;28;20205;-80
2020/12/29 11:28:26;;;;;;;3.17;1.20;;;;;;;5.66;63.99;95497.41;8318563;28;20563;-80
2020/12/29 11:32:28;;;;;;;2.40;2.20;;;;;;;5.68;64.02;95503.28;8317632;28;20221;-80
2020/12/29 11:36:30;;;;;;;1.70;1.60;;;;;;;5.76;64.24;95506.16;8318866;28;20205;-80
2020/12/29 11:40:32;;;;;;;7.87;6.43;;;;;;;5.79;64.27;95512.88;8318241;28;20201;-80
2020/12/29 11:44:34;;;;;;;5.13;4.10;;;;;;;5.69;64.46;95520.31;8317725;28;20212;-80
2020/12/29 11:48:36;;;;;;;7.13;6.43;;;;;;;5.79;64.18;95523.97;8317995;28;20205;-80
2020/12/29 11:52:39;;;;;;;2.37;2.17;;;;;;;5.71;64.18;95527.94;8314353;28;20232;-80
2020/12/29 11:56:40;;;;;;;5.07;4.57;;;;;;;5.89;63.71;95529.31;8315895;28;20207;-80
2020/12/29 12:00:42;;;;;;;5.00;4.47;;;;;;;5.89;63.47;95544.75;8313677;28;20601;-80
2020/12/29 12:04:44;;;;;;;3.57;3.20;;;;;;;5.91;63.45;95554.94;8317093;28;20213;-80
2020/12/29 12:08:48;;;;;;;1.57;1.40;;;;;;;5.87;63.49;95567.94;8315923;28;20637;-81
2020/12/29 12:12:50;;;;;;;1.20;1.10;;;;;;;5.95;63.35;95574.34;8321112;28;20240;-81
2020/12/29 12:16:52;;;;;;;1.33;1.23;;;;;;;5.83;62.97;95578.53;8322413;28;20567;-81
2020/12/29 12:20:54;;;;;;;1.17;1.00;;;;;;;6.01;62.75;95589.41;8322916;28;20197;-81
2020/12/29 12:25:01;;;;;;;2.90;2.70;;;;;;;6.00;63.39;95598.03;8323428;28;20268;-80
2020/12/29 12:29:03;;;;;;;1.80;1.70;;;;;;;5.94;63.12;95603.53;8316269;28;20248;-80
2020/12/29 12:33:05;;;;;;;3.30;1.80;;;;;;;5.96;63.07;95614.56;8311760;28;20233;-79
2020/12/29 12:37:07;;;;;;;0.90;0.90;;;;;;;5.89;63.81;95624.38;8313027;28;20205;-80
2020/12/29 12:41:09;;;;;;;1.10;1.00;;;;;;;5.84;62.95;95629.78;8312009;28;20201;-79
2020/12/29 12:45:11;;;;;;;1.10;1.00;;;;;;;5.80;63.05;95632.66;8312326;28;20189;-80
2020/12/29 12:49:13;;;;;;;0.93;0.87;;;;;;;5.87;63.08;95642.44;8316932;28;20197;-81
2020/12/29 12:53:25;;;;;;;2.83;1.10;;;;;;;5.92;62.76;95654.16;8319335;28;20201;-80
2020/12/29 12:57:28;;;;;;;1.40;1.00;;;;;;;5.90;62.79;95658.59;8318266;28;20212;-81
2020/12/29 13:01:30;;;;;;;1.67;1.40;;;;;;;6.12;62.57;95658.91;8318330;28;20216;-80
2020/12/29 13:05:32;;;;;;;1.80;1.47;;;;;;;6.11;62.38;95667.56;8321684;28;20637;-80
2020/12/29 13:09:33;;;;;;;1.87;1.10;;;;;;;6.18;61.58;95673.13;8319509;28;20225;-80
2020/12/29 13:13:36;;;;;;;0.70;0.70;;;;;;;6.15;61.46;95683.59;8319424;28;20244;-81
2020/12/29 13:17:38;;;;;;;1.07;0.80;;;;;;;6.19;62.11;95697.91;8310384;28;20205;-78
2020/12/29 13:21:48;;;;;;;0.73;0.60;;;;;;;6.14;60.80;95710.22;8305683;28;20189;-78
2020/12/29 13:25:50;;;;;;;2.30;0.90;;;;;;;6.15;61.30;95719.56;8311570;28;20196;-79
2020/12/29 13:29:52;;;;;;;2.03;0.80;;;;;;;5.93;60.77;95730.34;8317695;28;20239;-79
2020/12/29 13:33:54;;;;;;;0.90;0.70;;;;;;;5.93;60.90;95736.28;8314159;28;20196;-79
2020/12/29 13:38:12;;;;;;;1.27;0.90;;;;;;;5.97;60.54;95744.66;8319494;28;20208;-78
2020/12/29 13:42:14;;;;;;;2.80;1.10;;;;;;;6.34;58.94;95743.22;8319177;28;20549;-81
2020/12/29 13:46:17;;;;;;;1.97;1.10;;;;;;;6.41;58.39;95733.34;8322597;28;20232;-79
2020/12/29 13:50:19;;;;;;;2.53;1.40;;;;;;;6.27;58.43;95749.66;8323619;28;20228;-80
2020/12/29 13:54:21;;;;;;;2.80;1.70;;;;;;;6.32;58.57;95759.63;8318293;28;20654;-79
2020/12/29 13:58:23;;;;;;;3.80;1.53;;;;;;;6.32;58.91;95772.50;8322399;28;20215;-79
2020/12/29 14:02:25;;;;;;;2.77;1.10;;;;;;;6.26;58.73;95789.97;8323549;28;20209;-80
2020/12/29 14:06:27;;;;;;;1.30;1.10;;;;;;;6.31;58.15;95794.00;8321888;28;20204;-79
2020/12/29 14:10:29;;;;;;;1.97;1.40;;;;;;;6.18;58.45;95787.03;8321558;28;20225;-80
2020/12/29 14:14:32;;;;;;;2.13;1.30;;;;;;;6.37;57.84;95794.44;8320803;28;20236;-79
2020/12/29 14:18:34;;;;;;;3.57;1.50;;;;;;;6.50;57.87;95801.41;8320735;28;20205;-79
2020/12/29 14:22:36;;;;;;;1.93;1.33;;;;;;;6.59;57.31;95801.63;8320779;28;20205;-79
2020/12/29 14:26:38;;;;;;;2.33;1.17;;;;;;;6.60;57.30;95810.97;8320171;28;20213;-79
2020/12/29 14:30:40;;;;;;;3.67;1.47;;;;;;;6.54;58.12;95810.56;8320849;28;20221;-79
2020/12/29 14:34:42;;;;;;;2.97;1.47;;;;;;;6.51;58.08;95810.75;8318206;28;20208;-80
2020/12/29 14:38:44;;;;;;;4.43;2.83;;;;;;;6.63;58.43;95817.72;8320754;28;20208;-80
2020/12/29 14:42:46;;;;;;;9.47;4.33;;;;;;;6.50;58.40;95829.69;8321002;28;20205;-80
2020/12/29 14:46:48;;;;;;;5.57;3.40;;;;;;;6.45;58.49;95814.50;8322670;28;20204;-79
2020/12/29 14:50:52;;;;;;;4.03;1.90;;;;;;;6.39;58.66;95832.91;8323513;28;20229;-79
2020/12/29 14:54:54;;;;;;;3.63;1.87;;;;;;;6.34;58.50;95837.50;8321879;28;20235;-79
2020/12/29 14:58:57;;;;;;;4.10;2.60;;;;;;;6.36;58.50;95849.34;8320301;28;20566;-80
2020/12/29 15:03:00;;;;;;;7.03;3.97;;;;;;;6.36;58.67;95846.78;8320366;28;20209;-80
2020/12/29 15:07:02;;;;;;;4.93;3.47;;;;;;;6.26;58.85;95846.53;8320647;28;20216;-80
2020/12/29 15:11:04;;;;;;;4.40;3.50;;;;;;;6.31;59.10;95841.09;8320031;28;20241;-80
2020/12/29 15:15:06;;;;;;;6.13;2.93;;;;;;;6.25;59.07;95846.59;8319051;28;20233;-80
2020/12/29 15:19:08;;;;;;;5.73;2.27;;;;;;;6.23;58.99;95846.69;8317897;28;20221;-79
2020/12/29 15:23:10;;;;;;;3.67;2.27;;;;;;;6.17;58.78;95857.34;8318402;28;20548;-80
2020/12/29 15:27:12;;;;;;;2.83;1.70;;;;;;;6.12;58.84;95863.69;8319092;28;20197;-79
2020/12/29 15:31:16;;;;;;;4.27;1.97;;;;;;;6.12;58.78;95866.25;8320821;28;20248;-80
2020/12/29 15:35:18;;;;;;;5.93;4.57;;;;;;;6.11;61.23;95865.44;8322176;28;20228;-79
2020/12/29 15:39:21;;;;;;;8.50;5.20;;;;;;;5.93;59.18;95864.75;8322943;28;20587;-80
2020/12/29 15:43:22;;;;;;;10.97;7.00;;;;;;;5.91;59.71;95894.03;8323317;28;20197;-80
2020/12/29 15:47:25;;;;;;;9.83;6.90;;;;;;;5.91;59.49;95894.84;8316010;28;20240;-79
2020/12/29 15:51:26;;;;;;;11.10;7.60;;;;;;;5.83;59.83;95895.28;8313330;28;20221;-80
2020/12/29 15:55:29;;;;;;;13.23;8.83;;;;;;;5.79;59.66;95901.53;8320004;28;20201;-80
2020/12/29 15:59:31;;;;;;;17.93;12.23;;;;;;;5.77;59.83;95895.66;8320883;28;20372;-80
2020/12/29 16:03:32;;;;;;;19.47;12.10;;;;;;;5.67;60.46;95889.38;8315854;28;20201;-80
2020/12/29 16:07:34;;;;;;;21.27;11.07;;;;;;;5.54;60.22;95889.28;8311334;28;20231;-78
2020/12/29 16:11:37;;;;;;;16.47;9.90;;;;;;;5.44;60.30;95893.28;8306514;28;20228;-79
2020/12/29 16:15:39;;;;;;;16.77;10.07;;;;;;;5.43;60.36;95899.34;8318332;28;20236;-80
2020/12/29 16:19:40;;;;;;;21.10;11.40;;;;;;;5.39;60.08;95905.56;8317493;28;20194;-79
2020/12/29 16:23:43;;;;;;;18.00;10.83;;;;;;;5.37;60.90;95915.06;8317048;28;20204;-79
2020/12/29 16:27:45;;;;;;;21.13;10.27;;;;;;;5.28;60.86;95913.84;8316991;28;20205;-79
2020/12/29 16:31:47;;;;;;;19.30;10.10;;;;;;;5.21;61.26;95913.34;8312114;28;20588;-79
2020/12/29 16:35:49;;;;;;;17.13;11.60;;;;;;;5.35;61.25;95934.84;8318018;28;20201;-79
2020/12/29 16:39:51;;;;;;;16.70;12.37;;;;;;;5.36;60.88;95932.22;8321516;28;20193;-80
2020/12/29 16:43:54;;;;;;;18.35;14.30;;;;;;;5.41;60.07;95935.34;8321318;28;20417;-80
2020/12/29 16:47:56;;;;;;;22.37;16.93;;;;;;;5.12;60.76;95936.13;8317474;28;20197;-80
2020/12/29 16:51:58;;;;;;;25.83;19.73;;;;;;;5.08;61.49;95950.88;8317699;28;20221;-80
2020/12/29 16:55:59;;;;;;;22.60;17.10;;;;;;;5.14;61.04;95955.69;8319343;28;20221;-79
2020/12/29 17:00:03;;;;;;;22.30;15.70;;;;;;;4.92;62.02;95956.00;8320616;28;20209;-79
2020/12/29 17:04:05;;;;;;;19.77;14.60;;;;;;;5.08;61.21;95961.97;8323872;28;20301;-79
2020/12/29 17:08:07;;;;;;;20.50;16.30;;;;;;;5.14;61.16;95955.69;8320268;28;20220;-80
2020/12/29 17:12:10;;;;;;;20.27;15.57;;;;;;;5.23;61.78;95962.03;8320104;28;20294;-79
2020/12/29 17:16:13;;;;;;;26.57;17.67;;;;;;;5.34;61.48;95964.84;8318684;28;20205;-79
2020/12/29 17:20:15;;;;;;;40.13;31.23;;;;;;;5.24;60.99;95967.09;8318941;28;20205;-79
2020/12/29 17:24:18;;;;;;;35.87;28.60;;;;;;;5.13;61.26;95969.41;8318031;28;20216;-79
2020/12/29 17:28:31;;;;;;;23.20;19.63;;;;;;;4.93;61.97;95965.38;8318786;28;20205;-80
2020/12/29 17:32:34;;;;;;;30.97;25.20;;;;;;;4.66;62.55;95967.66;8316585;28;20320;-80
2020/12/29 17:36:35;;;;;;;34.20;27.80;;;;;;;4.71;62.91;95970.81;8320473;28;20592;-80
2020/12/29 17:40:37;;;;;;;34.00;27.23;;;;;;;4.97;62.69;95979.69;8323271;28;20227;-80
2020/12/29 17:44:39;;;;;;;29.73;24.43;;;;;;;5.13;62.56;95989.94;8320402;28;20213;-81
2020/12/29 17:48:44;;;;;;;27.07;21.83;;;;;;;5.14;62.08;95985.63;8310888;28;20688;-80
2020/12/29 17:52:46;;;;;;;28.03;21.60;;;;;;;5.13;62.17;95989.94;8317128;28;20304;-81
2020/12/29 17:56:48;;;;;;;30.80;24.03;;;;;;;5.21;62.44;95987.78;8322763;28;20315;-80
2020/12/29 18:00:50;;;;;;;27.80;20.77;;;;;;;5.24;62.79;96000.44;8323403;28;20197;-80
2020/12/29 18:04:52;;;;;;;28.83;23.50;;;;;;;5.16;62.26;95999.19;8321815;28;20778;-79
2020/12/29 18:08:55;;;;;;;28.60;21.03;;;;;;;5.24;62.06;95997.06;8317698;28;20201;-81
2020/12/29 18:12:57;;;;;;;23.77;19.23;;;;;;;5.26;61.85;96014.03;8321384;28;20232;-81
2020/12/29 18:16:59;;;;;;;28.10;21.97;;;;;;;5.04;62.43;96016.91;8319244;28;20292;-81
2020/12/29 18:21:01;;;;;;;19.17;16.13;;;;;;;4.79;63.31;96007.13;8319611;28;20205;-80
2020/12/29 18:25:03;;;;;;;26.77;21.17;;;;;;;4.92;62.93;96024.44;8321823;28;20641;-80
2020/12/29 18:29:05;;;;;;;22.30;18.53;;;;;;;4.91;63.02;96018.47;8322287;28;20197;-80
2020/12/29 18:33:08;;;;;;;30.97;24.33;;;;;;;4.94;63.09;96032.88;8322238;28;20259;-80
2020/12/29 18:37:26;;;;;;;28.83;22.83;;;;;;;5.00;62.91;96041.06;8323204;28;20251;-80
2020/12/29 18:41:27;;;;;;;26.53;21.50;;;;;;;4.93;62.92;96042.31;8327277;28;20208;-79
2020/12/29 18:45:29;;;;;;;27.87;19.33;;;;;;;5.00;63.13;96047.94;8321622;28;20205;-80
2020/12/29 18:49:31;;;;;;;19.93;14.63;;;;;;;4.99;63.21;96049.69;8320163;28;20534;-80
2020/12/29 18:53:33;;;;;;;18.97;14.07;;;;;;;5.19;62.54;96056.31;8319744;28;20224;-80
2020/12/29 18:57:38;;;;;;;18.40;13.83;;;;;;;5.17;62.01;96055.56;8317769;28;20205;-79
2020/12/29 19:01:40;;;;;;;18.37;13.70;;;;;;;5.08;62.42;96062.03;8317735;28;20209;-80
2020/12/29 19:05:45;;;;;;;16.47;12.70;;;;;;;4.90;63.03;96058.69;8316541;28;20204;-80
2020/12/29 19:09:48;;;;;;;18.60;14.13;;;;;;;5.13;62.69;96069.47;8316418;28;20196;-80
2020/12/29 19:13:50;;;;;;;18.73;13.83;;;;;;;5.10;62.46;96069.63;8316523;28;20251;-80